Miguel Esteban, Spain
Current Conditions -  °F | °C
As of 8:00 PM on Sunday 25 Jan 2015 (Local Time) from LEAO Reporting Station
Clear Clear  
Wind Chill: 45°   Ceiling: Unl
Heat Index: 45°   Visibility: 6mi
Dew Point: 23°   Wind: 3mph
Humidity: 43%   Direction: 20°NNE
Pressure: 30.27"   Gusts: NA
Location:  39.52°N, 3.08°W
Report Text: LEAO 251900Z 02003KT 330V050 CAVOK 07/M05 Q1025
Loading
Personal Weather Stations






























Interactive Weather Map New forecast layout! Learn more

10-Day Weather Forecast

Advertisements
Track Severe Weather on mobile